sensor_id;sensor_type;location;lat;lon;timestamp;pressure;altitude;pressure_sealevel;temperature;humidity
6395;BME280;3230;42.588;23.358;2022-12-18T00:02:09;91627.84;;;7.38;100.00
6395;BME280;3230;42.588;23.358;2022-12-18T00:04:37;91628.25;;;7.13;100.00
6395;BME280;3230;42.588;23.358;2022-12-18T00:07:03;91636.00;;;7.08;100.00
6395;BME280;3230;42.588;23.358;2022-12-18T00:09:28;91635.81;;;7.14;100.00
6395;BME280;3230;42.588;23.358;2022-12-18T00:11:54;91630.16;;;7.00;100.00
6395;BME280;3230;42.588;23.358;2022-12-18T00:14:19;91629.00;;;6.96;100.00
6395;BME280;3230;42.588;23.358;2022-12-18T00:16:46;91636.91;;;7.01;100.00
6395;BME280;3230;42.588;23.358;2022-12-18T00:19:13;91636.91;;;7.01;100.00
6395;BME280;3230;42.588;23.358;2022-12-18T00:21:38;91638.41;;;7.14;100.00
6395;BME280;3230;42.588;23.358;2022-12-18T00:24:07;91646.09;;;7.04;100.00
6395;BME280;3230;42.588;23.358;2022-12-18T00:26:34;91644.72;;;7.01;100.00
6395;BME280;3230;42.588;23.358;2022-12-18T00:29:05;91652.09;;;7.04;100.00
6395;BME280;3230;42.588;23.358;2022-12-18T00:31:31;91657.63;;;7.08;100.00
6395;BME280;3230;42.588;23.358;2022-12-18T00:33:57;91651.94;;;6.94;100.00
6395;BME280;3230;42.588;23.358;2022-12-18T00:36:26;91659.03;;;6.99;100.00
6395;BME280;3230;42.588;23.358;2022-12-18T00:38:53;91661.25;;;7.07;100.00
6395;BME280;3230;42.588;23.358;2022-12-18T00:41:19;91666.38;;;7.02;100.00
6395;BME280;3230;42.588;23.358;2022-12-18T00:44:04;91665.75;;;6.95;100.00
6395;BME280;3230;42.588;23.358;2022-12-18T00:46:30;91663.38;;;6.93;100.00
6395;BME280;3230;42.588;23.358;2022-12-18T00:48:55;91655.06;;;6.96;100.00
6395;BME280;3230;42.588;23.358;2022-12-18T00:51:21;91661.72;;;6.87;100.00
6395;BME280;3230;42.588;23.358;2022-12-18T00:53:46;91665.81;;;7.00;100.00
6395;BME280;3230;42.588;23.358;2022-12-18T00:56:11;91669.47;;;7.16;100.00
6395;BME280;3230;42.588;23.358;2022-12-18T00:58:37;91663.59;;;6.92;100.00
6395;BME280;3230;42.588;23.358;2022-12-18T01:01:06;91670.88;;;6.90;100.00
6395;BME280;3230;42.588;23.358;2022-12-18T01:03:31;91674.25;;;6.90;100.00
6395;BME280;3230;42.588;23.358;2022-12-18T01:05:57;91683.53;;;6.98;100.00
6395;BME280;3230;42.588;23.358;2022-12-18T01:08:22;91677.16;;;6.77;100.00
6395;BME280;3230;42.588;23.358;2022-12-18T01:10:48;91679.47;;;6.61;100.00
6395;BME280;3230;42.588;23.358;2022-12-18T01:13:13;91686.00;;;6.47;100.00
6395;BME280;3230;42.588;23.358;2022-12-18T01:15:39;91676.97;;;6.37;100.00
6395;BME280;3230;42.588;23.358;2022-12-18T01:18:05;91681.94;;;6.39;100.00
6395;BME280;3230;42.588;23.358;2022-12-18T01:20:31;91686.81;;;6.35;100.00
6395;BME280;3230;42.588;23.358;2022-12-18T01:22:57;91685.13;;;6.29;100.00
6395;BME280;3230;42.588;23.358;2022-12-18T01:25:22;91683.44;;;6.35;100.00
6395;BME280;3230;42.588;23.358;2022-12-18T01:27:48;91690.06;;;6.43;100.00
6395;BME280;3230;42.588;23.358;2022-12-18T01:30:13;91701.31;;;6.31;100.00
6395;BME280;3230;42.588;23.358;2022-12-18T01:32:38;91697.91;;;6.31;100.00
6395;BME280;3230;42.588;23.358;2022-12-18T01:35:04;91696.81;;;6.27;100.00
6395;BME280;3230;42.588;23.358;2022-12-18T01:37:30;91689.59;;;6.17;100.00
6395;BME280;3230;42.588;23.358;2022-12-18T01:39:56;91687.81;;;6.05;100.00
6395;BME280;3230;42.588;23.358;2022-12-18T01:42:21;91701.50;;;6.01;100.00
6395;BME280;3230;42.588;23.358;2022-12-18T01:47:52;91695.84;;;5.92;100.00
6395;BME280;3230;42.588;23.358;2022-12-18T01:50:22;91703.75;;;5.73;100.00
6395;BME280;3230;42.588;23.358;2022-12-18T01:52:54;91705.00;;;5.83;100.00
6395;BME280;3230;42.588;23.358;2022-12-18T01:55:23;91706.34;;;5.73;100.00
6395;BME280;3230;42.588;23.358;2022-12-18T01:57:52;91699.00;;;5.58;100.00
6395;BME280;3230;42.588;23.358;2022-12-18T02:00:21;91707.63;;;5.59;100.00
6395;BME280;3230;42.588;23.358;2022-12-18T02:02:47;91707.03;;;5.57;100.00
6395;BME280;3230;42.588;23.358;2022-12-18T02:05:17;91702.19;;;5.60;100.00
6395;BME280;3230;42.588;23.358;2022-12-18T02:08:09;91708.28;;;5.42;100.00
6395;BME280;3230;42.588;23.358;2022-12-18T02:13:16;91712.47;;;5.43;100.00
6395;BME280;3230;42.588;23.358;2022-12-18T02:18:21;91712.22;;;5.45;100.00
6395;BME280;3230;42.588;23.358;2022-12-18T02:20:55;91712.78;;;5.35;100.00
6395;BME280;3230;42.588;23.358;2022-12-18T02:28:37;91716.97;;;5.36;100.00
6395;BME280;3230;42.588;23.358;2022-12-18T02:31:08;91715.38;;;5.35;100.00
6395;BME280;3230;42.588;23.358;2022-12-18T02:33:36;91721.34;;;5.36;100.00
6395;BME280;3230;42.588;23.358;2022-12-18T02:36:04;91729.97;;;5.36;100.00
6395;BME280;3230;42.588;23.358;2022-12-18T02:38:31;91725.78;;;5.35;100.00
6395;BME280;3230;42.588;23.358;2022-12-18T02:40:57;91722.59;;;5.33;100.00
6395;BME280;3230;42.588;23.358;2022-12-18T02:43:23;91723.16;;;5.23;100.00
6395;BME280;3230;42.588;23.358;2022-12-18T02:46:00;91722.41;;;5.35;100.00
6395;BME280;3230;42.588;23.358;2022-12-18T02:48:45;91726.13;;;5.51;100.00
6395;BME280;3230;42.588;23.358;2022-12-18T02:53:43;91735.19;;;5.48;100.00
6395;BME280;3230;42.588;23.358;2022-12-18T02:58:56;91737.97;;;5.23;100.00
6395;BME280;3230;42.588;23.358;2022-12-18T03:01:59;91746.06;;;5.15;100.00
6395;BME280;3230;42.588;23.358;2022-12-18T03:04:40;91737.69;;;5.12;100.00
6395;BME280;3230;42.588;23.358;2022-12-18T03:07:21;91739.13;;;4.96;100.00
6395;BME280;3230;42.588;23.358;2022-12-18T03:09:50;91740.13;;;4.84;100.00
6395;BME280;3230;42.588;23.358;2022-12-18T03:12:32;91743.50;;;4.84;100.00
6395;BME280;3230;42.588;23.358;2022-12-18T03:15:08;91746.63;;;4.74;100.00
6395;BME280;3230;42.588;23.358;2022-12-18T03:17:36;91743.56;;;4.66;100.00
6395;BME280;3230;42.588;23.358;2022-12-18T03:20:10;91750.47;;;4.72;100.00
6395;BME280;3230;42.588;23.358;2022-12-18T03:22:38;91754.97;;;4.46;100.00
6395;BME280;3230;42.588;23.358;2022-12-18T03:25:06;91754.16;;;4.45;100.00
6395;BME280;3230;42.588;23.358;2022-12-18T03:27:33;91753.44;;;4.38;100.00
6395;BME280;3230;42.588;23.358;2022-12-18T03:30:04;91756.97;;;4.44;100.00
6395;BME280;3230;42.588;23.358;2022-12-18T03:32:53;91747.25;;;4.39;100.00
6395;BME280;3230;42.588;23.358;2022-12-18T03:35:26;91760.53;;;4.50;100.00
6395;BME280;3230;42.588;23.358;2022-12-18T03:37:53;91763.66;;;4.52;100.00
6395;BME280;3230;42.588;23.358;2022-12-18T03:40:23;91786.38;;;4.56;100.00
6395;BME280;3230;42.588;23.358;2022-12-18T03:42:57;91778.88;;;4.48;100.00
6395;BME280;3230;42.588;23.358;2022-12-18T03:45:34;91791.44;;;4.32;100.00
6395;BME280;3230;42.588;23.358;2022-12-18T03:48:17;91788.69;;;4.27;100.00
6395;BME280;3230;42.588;23.358;2022-12-18T03:50:59;91784.44;;;4.14;100.00
6395;BME280;3230;42.588;23.358;2022-12-18T03:56:18;91789.41;;;3.97;100.00
6395;BME280;3230;42.588;23.358;2022-12-18T03:58:46;91786.19;;;4.02;100.00
6395;BME280;3230;42.588;23.358;2022-12-18T04:01:15;91788.81;;;3.95;100.00
6395;BME280;3230;42.588;23.358;2022-12-18T04:03:44;91790.81;;;3.93;100.00
6395;BME280;3230;42.588;23.358;2022-12-18T04:06:12;91799.34;;;4.00;100.00
6395;BME280;3230;42.588;23.358;2022-12-18T04:08:39;91798.97;;;3.97;100.00
6395;BME280;3230;42.588;23.358;2022-12-18T04:11:05;91803.03;;;4.11;100.00
6395;BME280;3230;42.588;23.358;2022-12-18T04:13:36;91804.88;;;4.04;100.00
6395;BME280;3230;42.588;23.358;2022-12-18T04:16:02;91811.44;;;4.07;100.00
6395;BME280;3230;42.588;23.358;2022-12-18T04:18:27;91818.88;;;4.03;100.00
6395;BME280;3230;42.588;23.358;2022-12-18T04:20:52;91816.06;;;4.05;100.00
6395;BME280;3230;42.588;23.358;2022-12-18T04:23:18;91818.16;;;3.96;100.00
6395;BME280;3230;42.588;23.358;2022-12-18T04:25:43;91812.75;;;3.97;100.00
6395;BME280;3230;42.588;23.358;2022-12-18T04:28:09;91822.59;;;3.89;100.00
6395;BME280;3230;42.588;23.358;2022-12-18T04:30:34;91824.28;;;4.02;100.00
6395;BME280;3230;42.588;23.358;2022-12-18T04:33:00;91830.63;;;4.06;100.00
6395;BME280;3230;42.588;23.358;2022-12-18T04:35:25;91837.56;;;4.12;100.00
6395;BME280;3230;42.588;23.358;2022-12-18T04:37:51;91836.50;;;3.94;100.00
6395;BME280;3230;42.588;23.358;2022-12-18T04:40:16;91832.50;;;3.98;100.00
6395;BME280;3230;42.588;23.358;2022-12-18T04:42:42;91844.16;;;4.08;100.00
6395;BME280;3230;42.588;23.358;2022-12-18T04:45:07;91847.34;;;3.84;100.00
6395;BME280;3230;42.588;23.358;2022-12-18T04:47:33;91861.66;;;3.94;100.00
6395;BME280;3230;42.588;23.358;2022-12-18T04:49:58;91862.03;;;3.97;100.00
6395;BME280;3230;42.588;23.358;2022-12-18T04:52:24;91860.75;;;3.81;100.00
6395;BME280;3230;42.588;23.358;2022-12-18T04:54:49;91864.59;;;3.72;100.00
6395;BME280;3230;42.588;23.358;2022-12-18T04:57:15;91868.91;;;3.85;100.00
6395;BME280;3230;42.588;23.358;2022-12-18T04:59:40;91867.94;;;3.79;100.00
6395;BME280;3230;42.588;23.358;2022-12-18T05:02:06;91859.09;;;3.87;100.00
6395;BME280;3230;42.588;23.358;2022-12-18T05:04:31;91866.47;;;3.90;100.00
6395;BME280;3230;42.588;23.358;2022-12-18T05:06:57;91872.44;;;3.91;100.00
6395;BME280;3230;42.588;23.358;2022-12-18T05:09:23;91872.28;;;3.86;100.00
6395;BME280;3230;42.588;23.358;2022-12-18T05:11:48;91882.06;;;3.83;100.00
6395;BME280;3230;42.588;23.358;2022-12-18T05:14:13;91890.44;;;3.86;100.00
6395;BME280;3230;42.588;23.358;2022-12-18T05:16:39;91889.22;;;3.88;100.00
6395;BME280;3230;42.588;23.358;2022-12-18T05:19:04;91894.03;;;3.84;100.00
6395;BME280;3230;42.588;23.358;2022-12-18T05:21:30;91891.97;;;3.68;100.00
6395;BME280;3230;42.588;23.358;2022-12-18T05:23:55;91902.88;;;3.70;100.00
6395;BME280;3230;42.588;23.358;2022-12-18T05:26:20;91906.75;;;3.61;100.00
6395;BME280;3230;42.588;23.358;2022-12-18T05:28:46;91910.34;;;3.60;100.00
6395;BME280;3230;42.588;23.358;2022-12-18T05:31:11;91915.53;;;3.60;100.00
6395;BME280;3230;42.588;23.358;2022-12-18T05:33:38;91923.72;;;3.57;100.00
6395;BME280;3230;42.588;23.358;2022-12-18T05:36:05;91921.47;;;3.67;100.00
6395;BME280;3230;42.588;23.358;2022-12-18T05:38:33;91928.44;;;3.66;100.00
6395;BME280;3230;42.588;23.358;2022-12-18T05:40:58;91926.81;;;3.72;100.00
6395;BME280;3230;42.588;23.358;2022-12-18T05:43:25;91934.00;;;3.70;100.00
6395;BME280;3230;42.588;23.358;2022-12-18T05:45:52;91935.13;;;3.81;100.00
6395;BME280;3230;42.588;23.358;2022-12-18T05:48:17;91940.00;;;3.64;100.00
6395;BME280;3230;42.588;23.358;2022-12-18T05:50:45;91952.34;;;3.75;100.00
6395;BME280;3230;42.588;23.358;2022-12-18T05:53:11;91946.00;;;3.64;100.00
6395;BME280;3230;42.588;23.358;2022-12-18T05:55:39;91945.19;;;3.64;100.00
6395;BME280;3230;42.588;23.358;2022-12-18T05:58:07;91946.38;;;3.68;100.00
6395;BME280;3230;42.588;23.358;2022-12-18T06:00:35;91937.69;;;3.56;100.00
6395;BME280;3230;42.588;23.358;2022-12-18T06:03:05;91942.13;;;3.48;100.00
6395;BME280;3230;42.588;23.358;2022-12-18T06:05:37;91950.06;;;3.54;100.00
6395;BME280;3230;42.588;23.358;2022-12-18T06:08:03;91949.91;;;3.42;100.00
6395;BME280;3230;42.588;23.358;2022-12-18T06:10:29;91946.09;;;3.51;100.00
6395;BME280;3230;42.588;23.358;2022-12-18T06:12:55;91953.47;;;3.47;100.00
6395;BME280;3230;42.588;23.358;2022-12-18T06:15:20;91953.84;;;3.51;100.00
6395;BME280;3230;42.588;23.358;2022-12-18T06:17:46;91961.03;;;3.56;100.00
6395;BME280;3230;42.588;23.358;2022-12-18T06:20:11;91962.97;;;3.60;100.00
6395;BME280;3230;42.588;23.358;2022-12-18T06:22:36;91962.47;;;3.45;100.00
6395;BME280;3230;42.588;23.358;2022-12-18T06:25:02;91966.38;;;3.54;100.00
6395;BME280;3230;42.588;23.358;2022-12-18T06:27:28;91969.19;;;3.52;100.00
6395;BME280;3230;42.588;23.358;2022-12-18T06:29:54;91972.31;;;3.68;100.00
6395;BME280;3230;42.588;23.358;2022-12-18T06:32:20;91982.47;;;3.63;100.00
6395;BME280;3230;42.588;23.358;2022-12-18T06:34:45;91977.78;;;3.46;100.00
6395;BME280;3230;42.588;23.358;2022-12-18T06:37:10;91985.94;;;3.50;100.00
6395;BME280;3230;42.588;23.358;2022-12-18T06:39:36;91996.31;;;3.50;100.00
6395;BME280;3230;42.588;23.358;2022-12-18T06:42:01;91990.91;;;3.58;100.00
6395;BME280;3230;42.588;23.358;2022-12-18T06:44:27;92002.19;;;3.71;100.00
6395;BME280;3230;42.588;23.358;2022-12-18T06:46:53;91989.84;;;3.73;100.00
6395;BME280;3230;42.588;23.358;2022-12-18T06:49:18;91996.22;;;3.70;100.00
6395;BME280;3230;42.588;23.358;2022-12-18T06:51:44;92003.97;;;3.70;100.00
6395;BME280;3230;42.588;23.358;2022-12-18T06:54:09;92003.91;;;3.83;100.00
6395;BME280;3230;42.588;23.358;2022-12-18T06:56:34;92015.31;;;3.82;100.00
6395;BME280;3230;42.588;23.358;2022-12-18T06:59:00;92020.41;;;3.96;100.00
6395;BME280;3230;42.588;23.358;2022-12-18T07:01:26;92021.75;;;4.05;100.00
6395;BME280;3230;42.588;23.358;2022-12-18T07:03:53;92026.38;;;3.96;100.00
6395;BME280;3230;42.588;23.358;2022-12-18T07:06:21;92023.94;;;4.08;100.00
6395;BME280;3230;42.588;23.358;2022-12-18T07:08:48;92023.69;;;4.16;100.00
6395;BME280;3230;42.588;23.358;2022-12-18T07:11:14;92025.34;;;4.04;100.00
6395;BME280;3230;42.588;23.358;2022-12-18T07:13:39;92042.50;;;4.05;100.00
6395;BME280;3230;42.588;23.358;2022-12-18T07:16:07;92036.38;;;3.99;100.00
6395;BME280;3230;42.588;23.358;2022-12-18T07:18:33;92043.09;;;4.07;100.00
6395;BME280;3230;42.588;23.358;2022-12-18T07:21:02;92044.25;;;4.11;100.00
6395;BME280;3230;42.588;23.358;2022-12-18T07:23:28;92051.31;;;4.29;100.00
6395;BME280;3230;42.588;23.358;2022-12-18T07:25:53;92044.53;;;4.28;100.00
6395;BME280;3230;42.588;23.358;2022-12-18T07:28:18;92044.53;;;4.28;100.00
6395;BME280;3230;42.588;23.358;2022-12-18T07:30:44;92043.91;;;4.33;100.00
6395;BME280;3230;42.588;23.358;2022-12-18T07:33:09;92046.28;;;4.35;100.00
6395;BME280;3230;42.588;23.358;2022-12-18T07:35:36;92045.44;;;4.15;100.00
6395;BME280;3230;42.588;23.358;2022-12-18T07:38:02;92044.78;;;4.52;100.00
6395;BME280;3230;42.588;23.358;2022-12-18T07:40:27;92049.84;;;4.40;100.00
6395;BME280;3230;42.588;23.358;2022-12-18T07:42:52;92036.50;;;4.37;100.00
6395;BME280;3230;42.588;23.358;2022-12-18T07:45:17;92051.09;;;4.38;100.00
6395;BME280;3230;42.588;23.358;2022-12-18T07:47:43;92054.28;;;4.40;100.00
6395;BME280;3230;42.588;23.358;2022-12-18T07:50:09;92063.19;;;4.51;100.00
6395;BME280;3230;42.588;23.358;2022-12-18T07:52:34;92060.78;;;4.74;100.00
6395;BME280;3230;42.588;23.358;2022-12-18T07:55:00;92066.25;;;4.66;100.00
6395;BME280;3230;42.588;23.358;2022-12-18T07:57:25;92061.75;;;4.55;100.00
6395;BME280;3230;42.588;23.358;2022-12-18T07:59:51;92078.31;;;4.54;100.00
6395;BME280;3230;42.588;23.358;2022-12-18T08:02:16;92075.13;;;4.52;100.00
6395;BME280;3230;42.588;23.358;2022-12-18T08:04:41;92082.84;;;4.33;100.00
6395;BME280;3230;42.588;23.358;2022-12-18T08:07:07;92099.22;;;4.34;100.00
6395;BME280;3230;42.588;23.358;2022-12-18T08:09:32;92107.19;;;4.32;100.00
6395;BME280;3230;42.588;23.358;2022-12-18T08:11:58;92107.34;;;4.37;100.00
6395;BME280;3230;42.588;23.358;2022-12-18T08:14:23;92102.75;;;4.46;100.00
6395;BME280;3230;42.588;23.358;2022-12-18T08:16:48;92107.06;;;4.20;100.00
6395;BME280;3230;42.588;23.358;2022-12-18T08:19:14;92107.28;;;4.19;100.00
6395;BME280;3230;42.588;23.358;2022-12-18T08:21:39;92109.28;;;4.16;100.00
6395;BME280;3230;42.588;23.358;2022-12-18T08:24:06;92112.06;;;4.15;100.00
6395;BME280;3230;42.588;23.358;2022-12-18T08:26:31;92117.25;;;4.22;100.00
6395;BME280;3230;42.588;23.358;2022-12-18T08:28:58;92126.31;;;4.06;100.00
6395;BME280;3230;42.588;23.358;2022-12-18T08:31:26;92115.97;;;4.31;100.00
6395;BME280;3230;42.588;23.358;2022-12-18T08:33:53;92124.03;;;4.23;100.00
6395;BME280;3230;42.588;23.358;2022-12-18T08:36:19;92129.00;;;4.24;100.00
6395;BME280;3230;42.588;23.358;2022-12-18T08:38:45;92126.72;;;4.41;100.00
6395;BME280;3230;42.588;23.358;2022-12-18T08:41:13;92133.75;;;4.34;100.00
6395;BME280;3230;42.588;23.358;2022-12-18T08:43:39;92135.41;;;4.15;100.00
6395;BME280;3230;42.588;23.358;2022-12-18T08:46:25;92128.00;;;4.25;100.00
6395;BME280;3230;42.588;23.358;2022-12-18T08:48:51;92129.22;;;4.23;100.00
6395;BME280;3230;42.588;23.358;2022-12-18T08:51:18;92126.19;;;4.26;100.00
6395;BME280;3230;42.588;23.358;2022-12-18T08:53:44;92132.06;;;4.46;100.00
6395;BME280;3230;42.588;23.358;2022-12-18T08:56:10;92135.84;;;4.51;100.00
6395;BME280;3230;42.588;23.358;2022-12-18T08:58:36;92122.94;;;4.37;100.00
6395;BME280;3230;42.588;23.358;2022-12-18T09:01:06;92120.84;;;4.14;100.00
6395;BME280;3230;42.588;23.358;2022-12-18T09:03:32;92127.38;;;4.30;100.00
6395;BME280;3230;42.588;23.358;2022-12-18T09:05:58;92120.31;;;4.44;100.00
6395;BME280;3230;42.588;23.358;2022-12-18T09:08:24;92130.28;;;4.47;100.00
6395;BME280;3230;42.588;23.358;2022-12-18T09:10:50;92133.75;;;4.34;100.00
6395;BME280;3230;42.588;23.358;2022-12-18T09:13:16;92126.56;;;4.29;100.00
6395;BME280;3230;42.588;23.358;2022-12-18T09:15:43;92126.75;;;4.35;100.00
6395;BME280;3230;42.588;23.358;2022-12-18T09:18:08;92125.50;;;4.05;100.00
6395;BME280;3230;42.588;23.358;2022-12-18T09:20:35;92118.13;;;4.02;100.00
6395;BME280;3230;42.588;23.358;2022-12-18T09:23:01;92117.72;;;4.05;100.00
6395;BME280;3230;42.588;23.358;2022-12-18T09:25:26;92109.69;;;4.13;100.00
6395;BME280;3230;42.588;23.358;2022-12-18T09:27:56;92118.94;;;4.35;100.00
6395;BME280;3230;42.588;23.358;2022-12-18T09:30:22;92121.50;;;4.09;100.00
6395;BME280;3230;42.588;23.358;2022-12-18T09:32:47;92115.00;;;3.87;100.00
6395;BME280;3230;42.588;23.358;2022-12-18T09:35:13;92119.09;;;4.08;100.00
6395;BME280;3230;42.588;23.358;2022-12-18T09:37:38;92119.22;;;4.26;100.00
6395;BME280;3230;42.588;23.358;2022-12-18T09:40:04;92116.50;;;4.46;100.00
6395;BME280;3230;42.588;23.358;2022-12-18T09:42:30;92117.94;;;4.68;100.00
6395;BME280;3230;42.588;23.358;2022-12-18T09:44:55;92120.03;;;4.84;100.00
6395;BME280;3230;42.588;23.358;2022-12-18T09:47:30;92126.03;;;4.85;100.00
6395;BME280;3230;42.588;23.358;2022-12-18T09:50:04;92125.28;;;5.03;100.00
6395;BME280;3230;42.588;23.358;2022-12-18T09:52:37;92129.53;;;4.97;100.00
6395;BME280;3230;42.588;23.358;2022-12-18T09:55:11;92121.94;;;5.21;100.00
6395;BME280;3230;42.588;23.358;2022-12-18T09:57:45;92125.72;;;4.74;100.00
6395;BME280;3230;42.588;23.358;2022-12-18T10:00:21;92124.13;;;4.99;100.00
6395;BME280;3230;42.588;23.358;2022-12-18T10:02:47;92128.47;;;5.30;100.00
6395;BME280;3230;42.588;23.358;2022-12-18T10:05:17;92110.91;;;5.25;100.00
6395;BME280;3230;42.588;23.358;2022-12-18T10:07:55;92119.00;;;5.36;100.00
6395;BME280;3230;42.588;23.358;2022-12-18T10:10:32;92122.28;;;5.50;100.00
6395;BME280;3230;42.588;23.358;2022-12-18T10:13:31;92128.75;;;5.40;100.00
6395;BME280;3230;42.588;23.358;2022-12-18T10:21:10;92124.38;;;5.41;100.00
6395;BME280;3230;42.588;23.358;2022-12-18T10:24:18;92132.34;;;5.21;100.00
6395;BME280;3230;42.588;23.358;2022-12-18T10:26:47;92131.06;;;5.05;100.00
6395;BME280;3230;42.588;23.358;2022-12-18T10:29:14;92129.59;;;4.90;100.00
6395;BME280;3230;42.588;23.358;2022-12-18T10:31:40;92131.69;;;5.00;100.00
6395;BME280;3230;42.588;23.358;2022-12-18T10:34:12;92134.69;;;5.04;100.00
6395;BME280;3230;42.588;23.358;2022-12-18T10:36:41;92123.53;;;4.96;100.00
6395;BME280;3230;42.588;23.358;2022-12-18T10:39:19;92131.94;;;4.99;100.00
6395;BME280;3230;42.588;23.358;2022-12-18T10:41:44;92120.66;;;5.11;100.00
6395;BME280;3230;42.588;23.358;2022-12-18T10:44:23;92125.88;;;5.05;100.00
6395;BME280;3230;42.588;23.358;2022-12-18T10:46:55;92113.09;;;5.03;100.00
6395;BME280;3230;42.588;23.358;2022-12-18T10:49:30;92109.59;;;5.16;100.00
6395;BME280;3230;42.588;23.358;2022-12-18T10:54:54;92111.66;;;5.07;100.00
6395;BME280;3230;42.588;23.358;2022-12-18T10:59:56;92108.28;;;5.07;100.00
6395;BME280;3230;42.588;23.358;2022-12-18T11:02:37;92108.53;;;4.99;100.00
6395;BME280;3230;42.588;23.358;2022-12-18T11:05:30;92109.81;;;4.89;100.00
6395;BME280;3230;42.588;23.358;2022-12-18T11:07:57;92106.53;;;4.75;100.00
6395;BME280;3230;42.588;23.358;2022-12-18T11:10:34;92122.84;;;4.83;100.00
6395;BME280;3230;42.588;23.358;2022-12-18T11:13:18;92113.41;;;4.63;100.00
6395;BME280;3230;42.588;23.358;2022-12-18T11:15:44;92113.94;;;4.72;100.00
6395;BME280;3230;42.588;23.358;2022-12-18T11:20:59;92118.41;;;4.58;100.00
6395;BME280;3230;42.588;23.358;2022-12-18T11:23:26;92129.00;;;4.63;100.00
6395;BME280;3230;42.588;23.358;2022-12-18T11:26:01;92125.13;;;4.40;100.00
6395;BME280;3230;42.588;23.358;2022-12-18T11:31:19;92134.88;;;4.45;100.00
6395;BME280;3230;42.588;23.358;2022-12-18T11:34:02;92137.34;;;4.33;100.00
6395;BME280;3230;42.588;23.358;2022-12-18T11:36:38;92140.53;;;4.28;100.00
6395;BME280;3230;42.588;23.358;2022-12-18T11:39:12;92139.94;;;4.33;100.00
6395;BME280;3230;42.588;23.358;2022-12-18T11:41:48;92134.97;;;4.31;100.00
6395;BME280;3230;42.588;23.358;2022-12-18T11:44:52;92142.34;;;4.28;98.62
6395;BME280;3230;42.588;23.358;2022-12-18T11:47:28;92141.81;;;4.12;99.97
6395;BME280;3230;42.588;23.358;2022-12-18T11:49:55;92143.66;;;4.05;100.00
6395;BME280;3230;42.588;23.358;2022-12-18T11:52:28;92135.78;;;4.25;100.00
6395;BME280;3230;42.588;23.358;2022-12-18T11:54:59;92142.69;;;4.38;100.00
6395;BME280;3230;42.588;23.358;2022-12-18T11:57:49;92148.31;;;4.35;99.02
6395;BME280;3230;42.588;23.358;2022-12-18T12:00:20;92145.63;;;4.16;98.24
6395;BME280;3230;42.588;23.358;2022-12-18T12:08:10;92138.31;;;4.39;100.00
6395;BME280;3230;42.588;23.358;2022-12-18T12:11:13;92144.88;;;4.41;100.00
6395;BME280;3230;42.588;23.358;2022-12-18T12:19:42;92143.03;;;4.48;100.00
6395;BME280;3230;42.588;23.358;2022-12-18T12:22:47;92148.25;;;4.42;100.00
6395;BME280;3230;42.588;23.358;2022-12-18T12:25:58;92144.13;;;4.27;100.00
6395;BME280;3230;42.588;23.358;2022-12-18T12:28:34;92142.06;;;4.04;100.00
6395;BME280;3230;42.588;23.358;2022-12-18T12:31:12;92145.19;;;4.20;100.00
6395;BME280;3230;42.588;23.358;2022-12-18T12:36:42;92158.47;;;4.43;100.00
6395;BME280;3230;42.588;23.358;2022-12-18T12:39:17;92161.06;;;4.43;99.29
6395;BME280;3230;42.588;23.358;2022-12-18T12:41:45;92162.97;;;4.55;97.10
6395;BME280;3230;42.588;23.358;2022-12-18T12:44:43;92157.63;;;4.50;95.12
6395;BME280;3230;42.588;23.358;2022-12-18T12:47:27;92162.91;;;4.68;95.10
6395;BME280;3230;42.588;23.358;2022-12-18T12:49:55;92157.91;;;4.99;95.92
6395;BME280;3230;42.588;23.358;2022-12-18T12:52:39;92175.78;;;4.82;94.38
6395;BME280;3230;42.588;23.358;2022-12-18T12:55:14;92178.63;;;4.73;94.35
6395;BME280;3230;42.588;23.358;2022-12-18T12:57:45;92171.97;;;4.84;94.85
6395;BME280;3230;42.588;23.358;2022-12-18T13:00:15;92167.31;;;4.93;95.02
6395;BME280;3230;42.588;23.358;2022-12-18T13:05:22;92187.25;;;4.74;93.57
6395;BME280;3230;42.588;23.358;2022-12-18T13:08:10;92183.88;;;4.67;95.34
6395;BME280;3230;42.588;23.358;2022-12-18T13:10:42;92177.84;;;4.34;95.40
6395;BME280;3230;42.588;23.358;2022-12-18T13:13:12;92175.88;;;4.29;97.08
6395;BME280;3230;42.588;23.358;2022-12-18T13:15:41;92184.63;;;4.35;94.92
6395;BME280;3230;42.588;23.358;2022-12-18T13:23:00;92187.75;;;4.05;95.65
6395;BME280;3230;42.588;23.358;2022-12-18T13:25:34;92185.97;;;3.99;95.83
6395;BME280;3230;42.588;23.358;2022-12-18T13:28:03;92197.19;;;3.79;96.32
6395;BME280;3230;42.588;23.358;2022-12-18T13:36:16;92190.81;;;3.89;96.45
6395;BME280;3230;42.588;23.358;2022-12-18T13:39:15;92191.44;;;3.71;97.09
6395;BME280;3230;42.588;23.358;2022-12-18T13:44:57;92200.81;;;3.65;98.26
6395;BME280;3230;42.588;23.358;2022-12-18T13:47:34;92201.63;;;3.59;100.00
6395;BME280;3230;42.588;23.358;2022-12-18T13:50:03;92212.38;;;3.69;99.47
6395;BME280;3230;42.588;23.358;2022-12-18T13:52:36;92215.72;;;3.76;99.71
6395;BME280;3230;42.588;23.358;2022-12-18T13:55:10;92212.75;;;3.79;100.00
6395;BME280;3230;42.588;23.358;2022-12-18T13:57:42;92225.31;;;3.82;100.00
6395;BME280;3230;42.588;23.358;2022-12-18T14:00:27;92217.16;;;3.72;100.00
6395;BME280;3230;42.588;23.358;2022-12-18T14:02:54;92214.94;;;3.76;100.00
6395;BME280;3230;42.588;23.358;2022-12-18T14:05:29;92218.97;;;3.51;100.00
6395;BME280;3230;42.588;23.358;2022-12-18T14:07:58;92219.94;;;3.64;99.82
6395;BME280;3230;42.588;23.358;2022-12-18T14:10:25;92220.31;;;3.88;98.90
6395;BME280;3230;42.588;23.358;2022-12-18T14:12:51;92229.25;;;4.05;97.24
6395;BME280;3230;42.588;23.358;2022-12-18T14:20:21;92235.09;;;3.67;98.97
6395;BME280;3230;42.588;23.358;2022-12-18T14:22:48;92239.06;;;3.76;98.94
6395;BME280;3230;42.588;23.358;2022-12-18T14:25:25;92241.06;;;3.67;98.72
6395;BME280;3230;42.588;23.358;2022-12-18T14:30:36;92236.72;;;3.41;100.00
6395;BME280;3230;42.588;23.358;2022-12-18T14:35:35;92233.50;;;3.46;100.00
6395;BME280;3230;42.588;23.358;2022-12-18T14:38:18;92237.53;;;3.35;100.00
6395;BME280;3230;42.588;23.358;2022-12-18T14:40:44;92243.09;;;3.32;100.00
6395;BME280;3230;42.588;23.358;2022-12-18T14:43:10;92238.50;;;3.41;100.00
6395;BME280;3230;42.588;23.358;2022-12-18T14:45:38;92237.53;;;3.35;100.00